Portada
METAR-TAF:

METAR-TAF

Aeroports :

Maurici, Maurici

latitud: 20-26S, longitud: 057-40E, altitud: 55 m

Observació

L'informe es va fer fa 37 minuts, a les 20:00 UTC
Vent 15 kt del Est
Temperatura 22°C
Humitat 83%
Pressió 1022 hPa
Visibilitat 10 km o més
Núvols disperses a una alçada de 1600 ft
Núvols disperses a una alçada de 5000 ft
xàfecs en les proximitats

METAR: FIMP 192000Z 08015KT 9999 VCSH SCT016 SCT050 22/19 Q1022

Hora: 00:37 (20:37 UTC)

Pronòstic

L'informe es va fer fa 3 hores i 22 minuts, a les 17:15 UTC
Pronòstic vàlid del 19 a les 18 UTC al 21 a les 00 UTC
Vent 15 kt del Est amb ràfegues de 25 kt
Visibilitat 10 km o més
Núvols disperses a una alçada de 1700 ft
Temporalment
l' 19 a les 18 UTC al 20 a les 00 UTC
Visibilitat: 7000 m
Cel ennuvolat a una alçada de 1500 ft
xàfecs de pluja

TAF: FIMP 191715Z 1918/2100 10015G25KT 9999 SCT017 TEMPO 1918/2000 7000 -SHRA BKN015

Observacions i pronòstics meteorològics de més de 4000 aeroports (METAR i TAF).

Les estacions disponibles són els punts grocs i vermells al mapa.

Posi el ratolí al punt desitjat per veure el nom de l'estació.

Feu clic per veure les observacions i els pronòstics meteorològics.

Per canviar el mapa: feu clic els botons verds amb una creu de color negre per apropar; al botó verd amb un guió per allunyar la imatge; o en les fletxes verdes per a mapes adjacents.


METAR-TAF: